x

South Hatteras - 225 South Of Cape Hatteras (41002) Wave Buoy

11:50 - Thu 28th Aug 2014 All times are EDT. -4 hours from GMT.

  • Sig Wave height 4.9ft
  • Swell Direction
  • Peak Period 9s
  • Average Period 6s
  • Wind
    4mph, 7mph gusts
  • Sea Temp 82°f
  • Aire Temp 81°f
  • Sea Pressure 1018.6mb
  • South Hatteras - 225 South Of Cape Hatteras
  • South Hatteras - 225 South Of Cape Hatteras

More Historic Weather Station data

Upgrade to MSW Pro to gain access to the past 30 days of data for over 8000 Wavebouys and Weather Stations around the globe.

Join Pro

Comparision Forecast

View Surf forecast
   
jue 08/28 11:50 5ft 9s 6s 4 7 mph 1018.6mb 82f 81f
10:50 5ft 7s 7s 4 7 mph 1018.6mb 82f 81f
9:50 5ft 7s 6s 7 9 mph 1018.4mb 82f 81f
8:50 5ft 8s 7s 7 9 mph 1018mb 82f 81f
7:50 5ft 7s 7s 2 4 mph 1017.5mb 82f 81f
6:50 5ft 8s 7s 4 7 mph 1017.1mb 83f 82f
5:50 5ft 8s 7s 7
mph
1017.1mb 83f 82f
4:50 5ft 8s 7s 7 9 mph 1016.9mb 83f 81f
3:50 6ft 8s 7s 2 4 mph 1016.9mb 83f 80f
2:50 7ft 8s 7s 4 7 mph 1016.9mb 82f 79f
1:50 6.5ft 9s 7s 7 9 mph 1017.4mb 81f 79f
12:50 7.5ft 9s 7s 13 16 mph 1017.8mb 81f 78f
11:50 7ft 8s 7s 11 18 mph 1018mb 81f 80f
10:50 7.5ft 8s 7s 9 11 mph 1017.8mb 81f 80f
9:50 7ft 8s 7s 7 11 mph 1017.3mb 81f 80f
8:50 8ft 9s 7s 7 9 mph 1016.9mb 81f 80f
7:50 7.5ft 9s 7s 7
mph
1016.4mb 81f 80f
6:50 8ft 7s 7s 7 9 mph 1016mb 81f 80f
5:50 9ft 8s 7s 9 11 mph 1015.5mb 81f 80f
4:50 8.5ft 8s 7s 11 13 mph 1015mb 81f 80f
3:50 8.5ft 8s 7s 9 13 mph 1014.7mb 81f 80f
2:50 9ft 9s 7s 9 13 mph 1014.5mb 81f 80f
1:50 8.5ft 8s 7s 13 16 mph 1014.5mb 81f 80f
12:50 9ft 8s 7s 16 18 mph 1014.3mb 81f 80f
mié 08/27 11:50 9ft 9s 7s 11 16 mph 1014mb 81f 80f
10:50 9ft 8s 7s 16 18 mph 1013.6mb 81f 81f
9:50 9ft 9s 7s 16 18 mph 1013.3mb 81f 81f
8:50 10ft 9s 7s 18 22 mph 1012.6mb 81f 81f
7:50 10ft 8s 7s 18 25 mph 1011.4mb 81f 81f
6:50 10ft 8s 7s 20 25 mph 1011mb 81f 81f
5:50 10.5ft 9s 7s 20 29 mph 1010.6mb 81f 81f
4:50 10ft 10s 7s 25 27 mph 1009.7mb 81f 81f
3:50 11ft 10s 7s 22 29 mph 1009.2mb 81f 78f
2:50 11ft 10s 7s 27 31 mph 1008.6mb 81f 81f
1:50 12ft 11s 7s 27 34 mph 1008.5mb 81f 81f
12:50 13ft 10s 7s 27 31 mph 1008.4mb 81f 80f
11:50 13ft 10s 7s 27 31 mph 1008.5mb 81f 80f
10:50 13ft 11s 7s 27 34 mph 1008.1mb 81f 79f
9:50 14.5ft 10s 7s 27 34 mph 1007.6mb 81f 79f
8:50 13.5ft 11s 7s 29 36 mph 1007.6mb 81f 79f
7:50 13.5ft 12s 7s 31 38 mph 1006.8mb 81f 80f
6:50 13.5ft 10s 7s 27 34 mph 1006.6mb 81f 80f
5:50 12.5ft 9s 7s 29 36 mph 1006.5mb 81f 80f
4:50 14ft 9s 7s 29 38 mph 1006.8mb 81f 80f
3:50 12ft 9s 7s 29 34 mph 1007.1mb 81f 80f
2:50 11ft 8s 7s 29 36 mph 1007.6mb 81f 80f
1:50 10.5ft 8s 7s 29 34 mph 1008mb 81f 80f
12:50 10.5ft 8s 6s 27 34 mph 1008.8mb 81f 80f
mar 08/26 11:50 10ft 8s 7s 27 36 mph 1009.4mb 81f 80f
10:50 10ft 8s 6s 27 31 mph 1009.9mb 81f 80f
9:50 10.5ft 8s 7s 25 31 mph 1010.4mb 81f 80f
8:50 10ft 8s 7s 27 31 mph 1010.3mb 81f 80f
7:50 11ft 7s 7s 25 29 mph 1010mb 81f 79f
6:50 10ft 8s 7s 27 34 mph 1010.4mb 81f 80f
5:50 11ft 9s 7s 27 31 mph 1010.6mb 81f 80f
4:50 11ft 8s 7s 27 31 mph 1010.9mb 81f 80f
3:50 11.5ft 11s 7s 27 31 mph 1011mb 81f 80f
2:50 12.5ft 8s 7s 27 31 mph 1011.3mb 81f 80f
1:50 11.5ft 8s 7s 25 34 mph 1012.1mb 81f 79f
12:50 11.5ft 8s 7s 29 36 mph 1012mb 81f 80f
11:50 12.5ft 8s 7s 27 34 mph 1012.5mb 81f 80f
10:50 12ft 8s 7s 27 34 mph 1012.6mb 81f 80f
9:50 11ft 8s 7s 27 31 mph 1012.5mb 81f 80f
7:50 10ft 8s 7s 27 34 mph 1012.1mb 81f 79f
6:50 11ft 9s 7s 25 29 mph 1012.2mb 81f 79f
5:50 11ft 8s 7s 25 31 mph 1012.2mb 81f 79f
4:50 10ft 8s 7s 25 29 mph 1012.1mb 81f 79f
3:50 10ft 8s 7s 25 29 mph 1012.1mb 81f 80f
2:50 10ft 7s 6s 27 31 mph 1012.4mb 81f 80f
1:50 9.5ft 8s 6s 25 29 mph 1012.4mb 81f 80f
12:50 9.5ft 9s 6s 25 29 mph 1012.6mb 81f 80f
lun 08/25 11:50 10ft 7s 6s 27 31 mph 1012.6mb 81f 80f
10:50 10ft 8s 7s 27 31 mph 1012.7mb 81f 80f
9:50 9ft 9s 6s 25 29 mph 1012.6mb 81f 80f
7:50 9ft 10s 6s 25 29 mph 1012.3mb 81f 80f
6:50 8ft 10s 6s 27 31 mph 1011.7mb 81f 81f
5:50 8ft 10s 6s 25 29 mph 1011.6mb 81f 81f
4:50 7.5ft 9s 6s 22 27 mph 1011.6mb 81f 81f
3:50 8ft 9s 6s 25 29 mph 1011.6mb 81f 81f
2:50 7ft 9s 6s 22 27 mph 1012.1mb 81f 80f
1:50 7ft 8s 6s 22 27 mph 1012.3mb 81f 80f
12:50 7ft 8s 6s 22 27 mph 1012.4mb 81f 80f
11:50 7ft 8s 6s 22 27 mph 1012.6mb 81f 80f
10:50 6.5ft 9s 6s 22 27 mph 1012.4mb 81f 80f
9:50 6.5ft 8s 6s 20 22 mph 1012.1mb 81f 80f
8:50 6.5ft 7s 6s 20 22 mph 1011.8mb 81f 80f
7:50 7ft 8s 6s 20 25 mph 1011.6mb 81f 80f
6:50 7ft 8s 6s 20 25 mph 1011.3mb 81f 79f
5:50 7ft 8s 6s 20 25 mph 1011.1mb 81f 79f